sensor_id;sensor_type;location;lat;lon;timestamp;P1;durP1;ratioP1;P2;durP2;ratioP2
12792;SDS011;6460;42.684;23.260;2023-04-15T00:00:09;8.83;;;5.77;;
12792;SDS011;6460;42.684;23.260;2023-04-15T00:02:37;10.47;;;6.13;;
12792;SDS011;6460;42.684;23.260;2023-04-15T00:05:07;9.20;;;5.73;;
12792;SDS011;6460;42.684;23.260;2023-04-15T00:07:34;7.60;;;5.50;;
12792;SDS011;6460;42.684;23.260;2023-04-15T00:10:01;8.93;;;5.90;;
12792;SDS011;6460;42.684;23.260;2023-04-15T00:12:29;7.67;;;5.47;;
12792;SDS011;6460;42.684;23.260;2023-04-15T00:14:56;6.63;;;5.27;;
12792;SDS011;6460;42.684;23.260;2023-04-15T00:17:23;10.20;;;5.70;;
12792;SDS011;6460;42.684;23.260;2023-04-15T00:19:51;7.43;;;5.30;;
12792;SDS011;6460;42.684;23.260;2023-04-15T00:22:20;8.60;;;5.27;;
12792;SDS011;6460;42.684;23.260;2023-04-15T00:24:47;8.97;;;5.60;;
12792;SDS011;6460;42.684;23.260;2023-04-15T00:27:15;8.03;;;5.77;;
12792;SDS011;6460;42.684;23.260;2023-04-15T00:29:42;7.90;;;5.37;;
12792;SDS011;6460;42.684;23.260;2023-04-15T00:32:09;7.50;;;4.90;;
12792;SDS011;6460;42.684;23.260;2023-04-15T00:34:36;6.80;;;4.80;;
12792;SDS011;6460;42.684;23.260;2023-04-15T00:37:03;6.83;;;3.87;;
12792;SDS011;6460;42.684;23.260;2023-04-15T00:39:32;5.93;;;4.07;;
12792;SDS011;6460;42.684;23.260;2023-04-15T00:41:59;5.17;;;3.93;;
12792;SDS011;6460;42.684;23.260;2023-04-15T00:44:45;8.63;;;4.50;;
12792;SDS011;6460;42.684;23.260;2023-04-15T00:47:13;6.47;;;4.63;;
12792;SDS011;6460;42.684;23.260;2023-04-15T00:49:41;6.37;;;4.90;;
12792;SDS011;6460;42.684;23.260;2023-04-15T00:52:08;7.93;;;5.30;;
12792;SDS011;6460;42.684;23.260;2023-04-15T00:54:36;6.90;;;4.33;;
12792;SDS011;6460;42.684;23.260;2023-04-15T00:57:04;7.63;;;4.77;;
12792;SDS011;6460;42.684;23.260;2023-04-15T00:59:32;6.03;;;4.50;;
12792;SDS011;6460;42.684;23.260;2023-04-15T01:01:59;6.03;;;4.87;;
12792;SDS011;6460;42.684;23.260;2023-04-15T01:04:26;7.20;;;4.90;;
12792;SDS011;6460;42.684;23.260;2023-04-15T01:06:53;7.50;;;5.13;;
12792;SDS011;6460;42.684;23.260;2023-04-15T01:09:21;6.50;;;4.50;;
12792;SDS011;6460;42.684;23.260;2023-04-15T01:11:49;5.67;;;3.93;;
12792;SDS011;6460;42.684;23.260;2023-04-15T01:14:17;6.20;;;4.13;;
12792;SDS011;6460;42.684;23.260;2023-04-15T01:16:44;12.77;;;5.67;;
12792;SDS011;6460;42.684;23.260;2023-04-15T01:19:12;7.17;;;5.40;;
12792;SDS011;6460;42.684;23.260;2023-04-15T01:21:42;7.97;;;5.50;;
12792;SDS011;6460;42.684;23.260;2023-04-15T01:24:09;6.93;;;4.70;;
12792;SDS011;6460;42.684;23.260;2023-04-15T01:26:39;6.30;;;4.03;;
12792;SDS011;6460;42.684;23.260;2023-04-15T01:29:06;5.40;;;4.13;;
12792;SDS011;6460;42.684;23.260;2023-04-15T01:31:33;6.30;;;4.37;;
12792;SDS011;6460;42.684;23.260;2023-04-15T01:34:01;7.23;;;4.43;;
12792;SDS011;6460;42.684;23.260;2023-04-15T01:36:28;7.53;;;4.37;;
12792;SDS011;6460;42.684;23.260;2023-04-15T01:38:56;5.40;;;4.30;;
12792;SDS011;6460;42.684;23.260;2023-04-15T01:41:24;5.17;;;3.60;;
12792;SDS011;6460;42.684;23.260;2023-04-15T01:43:53;7.23;;;3.90;;
12792;SDS011;6460;42.684;23.260;2023-04-15T01:46:21;7.43;;;4.03;;
12792;SDS011;6460;42.684;23.260;2023-04-15T01:48:48;4.03;;;3.20;;
12792;SDS011;6460;42.684;23.260;2023-04-15T01:51:15;6.97;;;3.20;;
12792;SDS011;6460;42.684;23.260;2023-04-15T01:53:42;3.97;;;3.40;;
12792;SDS011;6460;42.684;23.260;2023-04-15T01:56:10;5.70;;;3.57;;
12792;SDS011;6460;42.684;23.260;2023-04-15T01:58:37;4.53;;;3.50;;
12792;SDS011;6460;42.684;23.260;2023-04-15T02:01:06;5.23;;;3.13;;
12792;SDS011;6460;42.684;23.260;2023-04-15T02:03:34;5.50;;;3.53;;
12792;SDS011;6460;42.684;23.260;2023-04-15T02:06:01;6.93;;;3.87;;
12792;SDS011;6460;42.684;23.260;2023-04-15T02:08:30;4.87;;;3.97;;
12792;SDS011;6460;42.684;23.260;2023-04-15T02:10:57;7.03;;;3.97;;
12792;SDS011;6460;42.684;23.260;2023-04-15T02:13:25;6.40;;;3.67;;
12792;SDS011;6460;42.684;23.260;2023-04-15T02:15:53;4.40;;;3.37;;
12792;SDS011;6460;42.684;23.260;2023-04-15T02:18:22;5.70;;;3.47;;
12792;SDS011;6460;42.684;23.260;2023-04-15T02:20:50;5.60;;;3.30;;
12792;SDS011;6460;42.684;23.260;2023-04-15T02:23:17;4.80;;;3.10;;
12792;SDS011;6460;42.684;23.260;2023-04-15T02:25:45;6.67;;;3.23;;
12792;SDS011;6460;42.684;23.260;2023-04-15T02:28:12;4.00;;;3.17;;
12792;SDS011;6460;42.684;23.260;2023-04-15T02:30:39;6.30;;;3.53;;
12792;SDS011;6460;42.684;23.260;2023-04-15T02:33:06;5.97;;;3.67;;
12792;SDS011;6460;42.684;23.260;2023-04-15T02:35:35;8.17;;;3.70;;
12792;SDS011;6460;42.684;23.260;2023-04-15T02:38:06;6.47;;;3.43;;
12792;SDS011;6460;42.684;23.260;2023-04-15T02:40:33;5.23;;;3.83;;
12792;SDS011;6460;42.684;23.260;2023-04-15T02:43:00;5.73;;;3.60;;
12792;SDS011;6460;42.684;23.260;2023-04-15T02:45:29;5.47;;;3.80;;
12792;SDS011;6460;42.684;23.260;2023-04-15T02:47:56;4.90;;;3.83;;
12792;SDS011;6460;42.684;23.260;2023-04-15T02:50:23;5.80;;;3.80;;
12792;SDS011;6460;42.684;23.260;2023-04-15T02:52:53;6.50;;;4.83;;
12792;SDS011;6460;42.684;23.260;2023-04-15T02:55:20;8.67;;;6.10;;
12792;SDS011;6460;42.684;23.260;2023-04-15T02:57:47;9.13;;;5.60;;
12792;SDS011;6460;42.684;23.260;2023-04-15T03:00:15;6.67;;;4.80;;
12792;SDS011;6460;42.684;23.260;2023-04-15T03:02:43;6.17;;;4.20;;
12792;SDS011;6460;42.684;23.260;2023-04-15T03:05:11;6.60;;;5.40;;
12792;SDS011;6460;42.684;23.260;2023-04-15T03:07:39;6.60;;;5.23;;
12792;SDS011;6460;42.684;23.260;2023-04-15T03:10:08;6.70;;;4.90;;
12792;SDS011;6460;42.684;23.260;2023-04-15T03:12:36;11.93;;;5.30;;
12792;SDS011;6460;42.684;23.260;2023-04-15T03:15:04;8.50;;;5.27;;
12792;SDS011;6460;42.684;23.260;2023-04-15T03:17:32;8.70;;;5.87;;
12792;SDS011;6460;42.684;23.260;2023-04-15T03:20:00;8.77;;;5.97;;
12792;SDS011;6460;42.684;23.260;2023-04-15T03:22:28;10.07;;;5.63;;
12792;SDS011;6460;42.684;23.260;2023-04-15T03:24:55;7.70;;;5.50;;
12792;SDS011;6460;42.684;23.260;2023-04-15T03:27:24;7.50;;;5.40;;
12792;SDS011;6460;42.684;23.260;2023-04-15T03:29:51;10.13;;;5.80;;
12792;SDS011;6460;42.684;23.260;2023-04-15T03:32:18;8.47;;;5.70;;
12792;SDS011;6460;42.684;23.260;2023-04-15T03:34:45;7.97;;;4.93;;
12792;SDS011;6460;42.684;23.260;2023-04-15T03:37:12;9.00;;;5.83;;
12792;SDS011;6460;42.684;23.260;2023-04-15T03:39:40;8.40;;;5.43;;
12792;SDS011;6460;42.684;23.260;2023-04-15T03:42:07;7.90;;;5.10;;
12792;SDS011;6460;42.684;23.260;2023-04-15T03:44:35;8.40;;;5.87;;
12792;SDS011;6460;42.684;23.260;2023-04-15T03:47:03;8.53;;;5.47;;
12792;SDS011;6460;42.684;23.260;2023-04-15T03:49:30;7.07;;;5.37;;
12792;SDS011;6460;42.684;23.260;2023-04-15T03:51:57;8.03;;;6.40;;
12792;SDS011;6460;42.684;23.260;2023-04-15T03:54:24;8.27;;;5.87;;
12792;SDS011;6460;42.684;23.260;2023-04-15T03:56:51;7.93;;;5.83;;
12792;SDS011;6460;42.684;23.260;2023-04-15T03:59:19;7.60;;;5.47;;
12792;SDS011;6460;42.684;23.260;2023-04-15T04:01:47;8.70;;;5.80;;
12792;SDS011;6460;42.684;23.260;2023-04-15T04:04:15;8.73;;;6.20;;
12792;SDS011;6460;42.684;23.260;2023-04-15T04:06:42;9.83;;;6.47;;
12792;SDS011;6460;42.684;23.260;2023-04-15T04:09:09;8.50;;;5.90;;
12792;SDS011;6460;42.684;23.260;2023-04-15T04:11:36;6.90;;;5.17;;
12792;SDS011;6460;42.684;23.260;2023-04-15T04:14:03;7.70;;;5.43;;
12792;SDS011;6460;42.684;23.260;2023-04-15T04:16:31;8.03;;;5.00;;
12792;SDS011;6460;42.684;23.260;2023-04-15T04:18:59;8.90;;;5.70;;
12792;SDS011;6460;42.684;23.260;2023-04-15T04:21:26;9.37;;;6.27;;
12792;SDS011;6460;42.684;23.260;2023-04-15T04:23:54;10.03;;;6.90;;
12792;SDS011;6460;42.684;23.260;2023-04-15T04:26:23;7.73;;;5.73;;
12792;SDS011;6460;42.684;23.260;2023-04-15T04:28:50;12.37;;;6.40;;
12792;SDS011;6460;42.684;23.260;2023-04-15T04:31:17;9.13;;;5.83;;
12792;SDS011;6460;42.684;23.260;2023-04-15T04:33:44;6.90;;;5.20;;
12792;SDS011;6460;42.684;23.260;2023-04-15T04:36:13;7.53;;;5.50;;
12792;SDS011;6460;42.684;23.260;2023-04-15T04:38:40;7.37;;;5.13;;
12792;SDS011;6460;42.684;23.260;2023-04-15T04:41:07;8.30;;;5.50;;
12792;SDS011;6460;42.684;23.260;2023-04-15T04:43:34;10.33;;;6.23;;
12792;SDS011;6460;42.684;23.260;2023-04-15T04:46:02;9.23;;;6.40;;
12792;SDS011;6460;42.684;23.260;2023-04-15T04:48:29;10.83;;;5.90;;
12792;SDS011;6460;42.684;23.260;2023-04-15T04:50:56;8.63;;;5.77;;
12792;SDS011;6460;42.684;23.260;2023-04-15T04:53:25;6.67;;;5.30;;
12792;SDS011;6460;42.684;23.260;2023-04-15T04:55:52;11.13;;;5.53;;
12792;SDS011;6460;42.684;23.260;2023-04-15T04:58:19;6.03;;;4.80;;
12792;SDS011;6460;42.684;23.260;2023-04-15T05:00:46;7.00;;;4.53;;
12792;SDS011;6460;42.684;23.260;2023-04-15T05:03:13;6.90;;;4.47;;
12792;SDS011;6460;42.684;23.260;2023-04-15T05:05:40;6.73;;;4.30;;
12792;SDS011;6460;42.684;23.260;2023-04-15T05:08:08;6.13;;;4.43;;
12792;SDS011;6460;42.684;23.260;2023-04-15T05:10:36;5.47;;;4.60;;
12792;SDS011;6460;42.684;23.260;2023-04-15T05:13:04;5.83;;;4.53;;
12792;SDS011;6460;42.684;23.260;2023-04-15T05:15:31;8.23;;;4.87;;
12792;SDS011;6460;42.684;23.260;2023-04-15T05:18:01;7.17;;;4.80;;
12792;SDS011;6460;42.684;23.260;2023-04-15T05:20:28;6.47;;;4.67;;
12792;SDS011;6460;42.684;23.260;2023-04-15T05:22:55;6.47;;;4.60;;
12792;SDS011;6460;42.684;23.260;2023-04-15T05:25:22;8.07;;;5.00;;
12792;SDS011;6460;42.684;23.260;2023-04-15T05:27:51;8.47;;;4.47;;
12792;SDS011;6460;42.684;23.260;2023-04-15T05:30:18;5.00;;;3.93;;
12792;SDS011;6460;42.684;23.260;2023-04-15T05:32:46;6.53;;;4.10;;
12792;SDS011;6460;42.684;23.260;2023-04-15T05:35:13;13.10;;;10.90;;
12792;SDS011;6460;42.684;23.260;2023-04-15T05:37:41;17.27;;;13.30;;
12792;SDS011;6460;42.684;23.260;2023-04-15T05:40:09;23.47;;;15.20;;
12792;SDS011;6460;42.684;23.260;2023-04-15T05:42:36;21.00;;;17.17;;
12792;SDS011;6460;42.684;23.260;2023-04-15T05:45:06;19.60;;;16.33;;
12792;SDS011;6460;42.684;23.260;2023-04-15T05:47:34;18.97;;;15.03;;
12792;SDS011;6460;42.684;23.260;2023-04-15T05:50:01;19.23;;;14.20;;
12792;SDS011;6460;42.684;23.260;2023-04-15T05:52:29;15.77;;;13.13;;
12792;SDS011;6460;42.684;23.260;2023-04-15T05:54:56;14.97;;;12.73;;
12792;SDS011;6460;42.684;23.260;2023-04-15T05:57:23;14.53;;;11.53;;
12792;SDS011;6460;42.684;23.260;2023-04-15T05:59:50;14.47;;;10.50;;
12792;SDS011;6460;42.684;23.260;2023-04-15T06:02:19;13.57;;;10.20;;
12792;SDS011;6460;42.684;23.260;2023-04-15T06:04:46;14.07;;;9.27;;
12792;SDS011;6460;42.684;23.260;2023-04-15T06:07:14;11.47;;;9.70;;
12792;SDS011;6460;42.684;23.260;2023-04-15T06:09:41;14.33;;;9.30;;
12792;SDS011;6460;42.684;23.260;2023-04-15T06:12:09;13.93;;;9.17;;
12792;SDS011;6460;42.684;23.260;2023-04-15T06:14:37;12.03;;;9.10;;
12792;SDS011;6460;42.684;23.260;2023-04-15T06:17:04;11.33;;;9.47;;
12792;SDS011;6460;42.684;23.260;2023-04-15T06:19:34;11.03;;;8.20;;
12792;SDS011;6460;42.684;23.260;2023-04-15T06:22:01;12.23;;;8.40;;
12792;SDS011;6460;42.684;23.260;2023-04-15T06:24:31;9.73;;;7.83;;
12792;SDS011;6460;42.684;23.260;2023-04-15T06:26:58;10.20;;;8.00;;
12792;SDS011;6460;42.684;23.260;2023-04-15T06:29:26;11.30;;;7.47;;
12792;SDS011;6460;42.684;23.260;2023-04-15T06:31:53;10.17;;;7.20;;
12792;SDS011;6460;42.684;23.260;2023-04-15T06:34:21;8.87;;;6.77;;
12792;SDS011;6460;42.684;23.260;2023-04-15T06:36:49;12.10;;;6.57;;
12792;SDS011;6460;42.684;23.260;2023-04-15T06:39:16;9.83;;;6.10;;
12792;SDS011;6460;42.684;23.260;2023-04-15T06:41:43;10.43;;;7.10;;
12792;SDS011;6460;42.684;23.260;2023-04-15T06:44:11;11.13;;;7.20;;
12792;SDS011;6460;42.684;23.260;2023-04-15T06:46:38;8.80;;;6.87;;
12792;SDS011;6460;42.684;23.260;2023-04-15T06:49:06;8.80;;;6.50;;
12792;SDS011;6460;42.684;23.260;2023-04-15T06:51:33;9.77;;;6.63;;
12792;SDS011;6460;42.684;23.260;2023-04-15T06:54:03;8.57;;;6.47;;
12792;SDS011;6460;42.684;23.260;2023-04-15T06:56:30;10.03;;;6.80;;
12792;SDS011;6460;42.684;23.260;2023-04-15T06:58:57;10.67;;;6.03;;
12792;SDS011;6460;42.684;23.260;2023-04-15T07:01:24;8.07;;;6.17;;
12792;SDS011;6460;42.684;23.260;2023-04-15T07:03:52;11.17;;;6.50;;
12792;SDS011;6460;42.684;23.260;2023-04-15T07:06:19;7.83;;;4.93;;
12792;SDS011;6460;42.684;23.260;2023-04-15T07:08:46;12.03;;;8.23;;
12792;SDS011;6460;42.684;23.260;2023-04-15T07:11:15;6.40;;;2.27;;
12792;SDS011;6460;42.684;23.260;2023-04-15T07:13:42;4.13;;;1.73;;
12792;SDS011;6460;42.684;23.260;2023-04-15T07:16:09;2.00;;;1.30;;
12792;SDS011;6460;42.684;23.260;2023-04-15T07:18:37;1.67;;;1.20;;
12792;SDS011;6460;42.684;23.260;2023-04-15T07:21:04;3.00;;;1.23;;
12792;SDS011;6460;42.684;23.260;2023-04-15T07:23:31;2.53;;;1.13;;
12792;SDS011;6460;42.684;23.260;2023-04-15T07:25:59;3.87;;;1.20;;
12792;SDS011;6460;42.684;23.260;2023-04-15T07:28:28;3.63;;;1.20;;
12792;SDS011;6460;42.684;23.260;2023-04-15T07:30:55;3.20;;;1.13;;
12792;SDS011;6460;42.684;23.260;2023-04-15T07:33:22;2.50;;;1.13;;
12792;SDS011;6460;42.684;23.260;2023-04-15T07:35:50;2.37;;;1.10;;
12792;SDS011;6460;42.684;23.260;2023-04-15T07:38:17;1.67;;;1.10;;
12792;SDS011;6460;42.684;23.260;2023-04-15T07:40:45;2.20;;;1.40;;
12792;SDS011;6460;42.684;23.260;2023-04-15T07:43:12;2.10;;;1.33;;
12792;SDS011;6460;42.684;23.260;2023-04-15T07:45:41;2.63;;;1.30;;
12792;SDS011;6460;42.684;23.260;2023-04-15T07:48:08;1.87;;;1.20;;
12792;SDS011;6460;42.684;23.260;2023-04-15T07:50:35;2.07;;;1.30;;
12792;SDS011;6460;42.684;23.260;2023-04-15T07:53:02;1.70;;;1.10;;
12792;SDS011;6460;42.684;23.260;2023-04-15T07:55:30;2.63;;;1.30;;
12792;SDS011;6460;42.684;23.260;2023-04-15T07:57:57;4.13;;;1.43;;
12792;SDS011;6460;42.684;23.260;2023-04-15T08:00:24;3.63;;;1.40;;
12792;SDS011;6460;42.684;23.260;2023-04-15T08:02:53;2.43;;;1.20;;
12792;SDS011;6460;42.684;23.260;2023-04-15T08:05:23;4.13;;;1.73;;
12792;SDS011;6460;42.684;23.260;2023-04-15T08:07:51;2.57;;;1.00;;
12792;SDS011;6460;42.684;23.260;2023-04-15T08:10:18;4.20;;;1.40;;
12792;SDS011;6460;42.684;23.260;2023-04-15T08:12:45;1.50;;;1.00;;
12792;SDS011;6460;42.684;23.260;2023-04-15T08:15:13;1.80;;;1.10;;
12792;SDS011;6460;42.684;23.260;2023-04-15T08:17:41;3.23;;;1.73;;
12792;SDS011;6460;42.684;23.260;2023-04-15T08:20:10;6.37;;;3.00;;
12792;SDS011;6460;42.684;23.260;2023-04-15T08:22:37;1.87;;;1.10;;
12792;SDS011;6460;42.684;23.260;2023-04-15T08:25:05;2.70;;;1.50;;
12792;SDS011;6460;42.684;23.260;2023-04-15T08:27:33;1.70;;;1.00;;
12792;SDS011;6460;42.684;23.260;2023-04-15T08:30:00;4.10;;;1.83;;
12792;SDS011;6460;42.684;23.260;2023-04-15T08:32:28;5.30;;;1.70;;
12792;SDS011;6460;42.684;23.260;2023-04-15T08:34:55;2.67;;;1.47;;
12792;SDS011;6460;42.684;23.260;2023-04-15T08:37:23;2.23;;;1.07;;
12792;SDS011;6460;42.684;23.260;2023-04-15T08:39:51;4.10;;;1.00;;
12792;SDS011;6460;42.684;23.260;2023-04-15T08:42:18;2.23;;;1.23;;
12792;SDS011;6460;42.684;23.260;2023-04-15T08:44:49;0.90;;;0.77;;
12792;SDS011;6460;42.684;23.260;2023-04-15T08:47:17;1.70;;;1.00;;
12792;SDS011;6460;42.684;23.260;2023-04-15T08:49:47;2.90;;;1.50;;
12792;SDS011;6460;42.684;23.260;2023-04-15T08:52:18;1.43;;;1.00;;
12792;SDS011;6460;42.684;23.260;2023-04-15T08:54:47;3.10;;;1.03;;
12792;SDS011;6460;42.684;23.260;2023-04-15T08:57:14;2.30;;;1.00;;
12792;SDS011;6460;42.684;23.260;2023-04-15T08:59:42;2.87;;;1.30;;
12792;SDS011;6460;42.684;23.260;2023-04-15T09:02:10;1.40;;;1.00;;
12792;SDS011;6460;42.684;23.260;2023-04-15T09:04:37;1.13;;;0.80;;
12792;SDS011;6460;42.684;23.260;2023-04-15T09:07:05;2.37;;;1.43;;
12792;SDS011;6460;42.684;23.260;2023-04-15T09:09:32;1.90;;;1.10;;
12792;SDS011;6460;42.684;23.260;2023-04-15T09:12:03;2.43;;;1.40;;
12792;SDS011;6460;42.684;23.260;2023-04-15T09:14:30;1.63;;;0.87;;
12792;SDS011;6460;42.684;23.260;2023-04-15T09:16:58;3.70;;;0.97;;
12792;SDS011;6460;42.684;23.260;2023-04-15T09:19:26;2.83;;;1.20;;
12792;SDS011;6460;42.684;23.260;2023-04-15T09:21:55;3.67;;;1.30;;
12792;SDS011;6460;42.684;23.260;2023-04-15T09:24:23;1.67;;;0.97;;
12792;SDS011;6460;42.684;23.260;2023-04-15T09:26:51;1.67;;;1.10;;
12792;SDS011;6460;42.684;23.260;2023-04-15T09:29:23;1.93;;;0.90;;
12792;SDS011;6460;42.684;23.260;2023-04-15T09:31:51;2.37;;;1.00;;
12792;SDS011;6460;42.684;23.260;2023-04-15T09:34:18;1.97;;;0.90;;
12792;SDS011;6460;42.684;23.260;2023-04-15T09:36:53;2.13;;;0.93;;
12792;SDS011;6460;42.684;23.260;2023-04-15T09:39:22;4.73;;;1.30;;
12792;SDS011;6460;42.684;23.260;2023-04-15T09:42:04;2.67;;;1.00;;
12792;SDS011;6460;42.684;23.260;2023-04-15T09:44:34;2.13;;;1.27;;
12792;SDS011;6460;42.684;23.260;2023-04-15T09:47:01;1.20;;;0.90;;
12792;SDS011;6460;42.684;23.260;2023-04-15T09:49:28;1.70;;;1.17;;
12792;SDS011;6460;42.684;23.260;2023-04-15T09:51:59;1.73;;;1.03;;
12792;SDS011;6460;42.684;23.260;2023-04-15T09:54:33;1.13;;;0.90;;
12792;SDS011;6460;42.684;23.260;2023-04-15T09:57:06;1.20;;;1.10;;
12792;SDS011;6460;42.684;23.260;2023-04-15T09:59:36;1.80;;;0.90;;
12792;SDS011;6460;42.684;23.260;2023-04-15T10:02:04;2.20;;;1.20;;
12792;SDS011;6460;42.684;23.260;2023-04-15T10:04:34;1.10;;;0.90;;
12792;SDS011;6460;42.684;23.260;2023-04-15T10:07:04;1.57;;;0.83;;
12792;SDS011;6460;42.684;23.260;2023-04-15T10:09:32;2.17;;;1.17;;
12792;SDS011;6460;42.684;23.260;2023-04-15T10:12:01;3.63;;;0.87;;
12792;SDS011;6460;42.684;23.260;2023-04-15T10:14:31;1.53;;;0.90;;
12792;SDS011;6460;42.684;23.260;2023-04-15T10:17:01;3.40;;;0.90;;
12792;SDS011;6460;42.684;23.260;2023-04-15T10:19:30;3.33;;;1.20;;
12792;SDS011;6460;42.684;23.260;2023-04-15T10:22:02;3.13;;;1.20;;
12792;SDS011;6460;42.684;23.260;2023-04-15T10:24:31;1.93;;;1.10;;
12792;SDS011;6460;42.684;23.260;2023-04-15T10:26:59;1.17;;;0.80;;
12792;SDS011;6460;42.684;23.260;2023-04-15T10:29:28;1.63;;;1.00;;
12792;SDS011;6460;42.684;23.260;2023-04-15T10:31:55;1.70;;;1.00;;
12792;SDS011;6460;42.684;23.260;2023-04-15T10:34:25;3.10;;;1.13;;
12792;SDS011;6460;42.684;23.260;2023-04-15T10:36:54;2.57;;;1.10;;
12792;SDS011;6460;42.684;23.260;2023-04-15T10:39:38;1.73;;;1.10;;
12792;SDS011;6460;42.684;23.260;2023-04-15T10:42:09;2.27;;;1.00;;
12792;SDS011;6460;42.684;23.260;2023-04-15T10:44:36;2.87;;;1.20;;
12792;SDS011;6460;42.684;23.260;2023-04-15T10:47:08;3.60;;;1.27;;
12792;SDS011;6460;42.684;23.260;2023-04-15T10:49:46;2.30;;;1.30;;
12792;SDS011;6460;42.684;23.260;2023-04-15T10:52:15;2.60;;;1.10;;
12792;SDS011;6460;42.684;23.260;2023-04-15T10:54:43;1.73;;;1.17;;
12792;SDS011;6460;42.684;23.260;2023-04-15T10:57:15;1.60;;;1.20;;
12792;SDS011;6460;42.684;23.260;2023-04-15T10:59:59;2.80;;;1.30;;
12792;SDS011;6460;42.684;23.260;2023-04-15T11:02:44;1.80;;;1.33;;
12792;SDS011;6460;42.684;23.260;2023-04-15T11:05:14;2.33;;;1.47;;
12792;SDS011;6460;42.684;23.260;2023-04-15T11:07:52;2.50;;;1.20;;
12792;SDS011;6460;42.684;23.260;2023-04-15T11:13:24;2.33;;;1.20;;
12792;SDS011;6460;42.684;23.260;2023-04-15T11:15:56;2.23;;;1.30;;
12792;SDS011;6460;42.684;23.260;2023-04-15T11:18:31;1.83;;;1.33;;
12792;SDS011;6460;42.684;23.260;2023-04-15T11:21:01;3.17;;;1.37;;
12792;SDS011;6460;42.684;23.260;2023-04-15T11:23:35;3.47;;;1.27;;
12792;SDS011;6460;42.684;23.260;2023-04-15T11:26:04;2.77;;;1.43;;
12792;SDS011;6460;42.684;23.260;2023-04-15T11:28:36;3.20;;;1.37;;
12792;SDS011;6460;42.684;23.260;2023-04-15T11:31:07;1.80;;;1.30;;
12792;SDS011;6460;42.684;23.260;2023-04-15T11:33:36;3.03;;;1.20;;
12792;SDS011;6460;42.684;23.260;2023-04-15T11:36:06;2.70;;;1.23;;
12792;SDS011;6460;42.684;23.260;2023-04-15T11:38:33;2.37;;;1.10;;
12792;SDS011;6460;42.684;23.260;2023-04-15T11:41:02;4.17;;;1.50;;
12792;SDS011;6460;42.684;23.260;2023-04-15T11:43:30;2.47;;;1.10;;
12792;SDS011;6460;42.684;23.260;2023-04-15T11:46:00;2.53;;;1.10;;
12792;SDS011;6460;42.684;23.260;2023-04-15T11:48:29;3.63;;;1.50;;
12792;SDS011;6460;42.684;23.260;2023-04-15T11:50:58;1.97;;;1.13;;
12792;SDS011;6460;42.684;23.260;2023-04-15T11:53:36;2.20;;;1.20;;
12792;SDS011;6460;42.684;23.260;2023-04-15T11:56:06;1.93;;;1.10;;
12792;SDS011;6460;42.684;23.260;2023-04-15T11:58:35;1.60;;;1.00;;
12792;SDS011;6460;42.684;23.260;2023-04-15T12:01:03;2.27;;;1.10;;
12792;SDS011;6460;42.684;23.260;2023-04-15T12:03:35;1.87;;;0.90;;
12792;SDS011;6460;42.684;23.260;2023-04-15T12:06:07;3.00;;;1.30;;
12792;SDS011;6460;42.684;23.260;2023-04-15T12:08:56;2.37;;;1.23;;
12792;SDS011;6460;42.684;23.260;2023-04-15T12:11:32;3.33;;;1.30;;
12792;SDS011;6460;42.684;23.260;2023-04-15T12:14:20;3.63;;;1.63;;
12792;SDS011;6460;42.684;23.260;2023-04-15T12:17:07;1.93;;;1.00;;
12792;SDS011;6460;42.684;23.260;2023-04-15T12:19:39;2.20;;;1.20;;
12792;SDS011;6460;42.684;23.260;2023-04-15T12:22:10;2.37;;;1.13;;
12792;SDS011;6460;42.684;23.260;2023-04-15T12:24:57;3.83;;;1.00;;
12792;SDS011;6460;42.684;23.260;2023-04-15T12:27:30;2.33;;;1.00;;
12792;SDS011;6460;42.684;23.260;2023-04-15T12:30:10;1.63;;;1.00;;
12792;SDS011;6460;42.684;23.260;2023-04-15T12:32:45;2.87;;;1.40;;
12792;SDS011;6460;42.684;23.260;2023-04-15T12:35:16;1.10;;;1.00;;
12792;SDS011;6460;42.684;23.260;2023-04-15T12:48:16;1.03;;;0.90;;
12792;SDS011;6460;42.684;23.260;2023-04-15T12:50:43;1.77;;;1.10;;
12792;SDS011;6460;42.684;23.260;2023-04-15T12:53:11;2.30;;;0.80;;
12792;SDS011;6460;42.684;23.260;2023-04-15T12:55:38;2.67;;;0.90;;
12792;SDS011;6460;42.684;23.260;2023-04-15T12:58:05;1.57;;;1.00;;
12792;SDS011;6460;42.684;23.260;2023-04-15T13:00:33;2.57;;;1.27;;
12792;SDS011;6460;42.684;23.260;2023-04-15T13:03:00;2.20;;;1.10;;
12792;SDS011;6460;42.684;23.260;2023-04-15T13:05:29;2.13;;;1.30;;
12792;SDS011;6460;42.684;23.260;2023-04-15T13:07:56;2.10;;;1.10;;
12792;SDS011;6460;42.684;23.260;2023-04-15T13:10:23;3.10;;;1.20;;
12792;SDS011;6460;42.684;23.260;2023-04-15T13:12:50;1.27;;;0.87;;
12792;SDS011;6460;42.684;23.260;2023-04-15T13:15:18;2.30;;;1.03;;
12792;SDS011;6460;42.684;23.260;2023-04-15T13:17:46;1.10;;;0.90;;
12792;SDS011;6460;42.684;23.260;2023-04-15T13:20:14;2.03;;;1.63;;
12792;SDS011;6460;42.684;23.260;2023-04-15T13:22:43;2.20;;;0.90;;
12792;SDS011;6460;42.684;23.260;2023-04-15T13:25:10;0.97;;;0.87;;
12792;SDS011;6460;42.684;23.260;2023-04-15T13:27:37;3.60;;;1.17;;
12792;SDS011;6460;42.684;23.260;2023-04-15T13:30:05;1.10;;;1.00;;
12792;SDS011;6460;42.684;23.260;2023-04-15T13:32:33;2.27;;;1.30;;
12792;SDS011;6460;42.684;23.260;2023-04-15T13:35:00;3.90;;;1.20;;
12792;SDS011;6460;42.684;23.260;2023-04-15T13:37:28;1.40;;;0.80;;
12792;SDS011;6460;42.684;23.260;2023-04-15T13:39:57;1.20;;;1.10;;
12792;SDS011;6460;42.684;23.260;2023-04-15T13:42:24;1.10;;;0.90;;
12792;SDS011;6460;42.684;23.260;2023-04-15T13:44:52;2.33;;;1.00;;
12792;SDS011;6460;42.684;23.260;2023-04-15T13:47:19;4.23;;;1.20;;
12792;SDS011;6460;42.684;23.260;2023-04-15T13:49:47;2.67;;;1.00;;
12792;SDS011;6460;42.684;23.260;2023-04-15T13:52:14;1.73;;;1.10;;
12792;SDS011;6460;42.684;23.260;2023-04-15T13:54:41;1.17;;;1.00;;
12792;SDS011;6460;42.684;23.260;2023-04-15T13:57:10;2.33;;;0.87;;
12792;SDS011;6460;42.684;23.260;2023-04-15T13:59:37;1.37;;;0.90;;
12792;SDS011;6460;42.684;23.260;2023-04-15T14:02:05;0.80;;;0.70;;
12792;SDS011;6460;42.684;23.260;2023-04-15T14:04:32;1.47;;;0.83;;
12792;SDS011;6460;42.684;23.260;2023-04-15T14:06:59;2.53;;;1.10;;
12792;SDS011;6460;42.684;23.260;2023-04-15T14:09:27;1.37;;;0.87;;
12792;SDS011;6460;42.684;23.260;2023-04-15T14:11:54;2.27;;;1.30;;
12792;SDS011;6460;42.684;23.260;2023-04-15T14:14:23;1.57;;;0.73;;
12792;SDS011;6460;42.684;23.260;2023-04-15T14:16:50;3.70;;;1.07;;
12792;SDS011;6460;42.684;23.260;2023-04-15T14:19:17;1.10;;;1.00;;
12792;SDS011;6460;42.684;23.260;2023-04-15T14:21:44;1.40;;;1.00;;
12792;SDS011;6460;42.684;23.260;2023-04-15T14:24:11;1.40;;;0.90;;
12792;SDS011;6460;42.684;23.260;2023-04-15T14:26:38;1.27;;;0.90;;
12792;SDS011;6460;42.684;23.260;2023-04-15T14:29:06;2.33;;;1.07;;
12792;SDS011;6460;42.684;23.260;2023-04-15T14:31:34;3.07;;;1.03;;
12792;SDS011;6460;42.684;23.260;2023-04-15T14:34:01;3.23;;;1.00;;
12792;SDS011;6460;42.684;23.260;2023-04-15T14:36:28;2.43;;;1.00;;
12792;SDS011;6460;42.684;23.260;2023-04-15T14:38:56;1.30;;;0.87;;
12792;SDS011;6460;42.684;23.260;2023-04-15T14:41:24;2.27;;;0.97;;
12792;SDS011;6460;42.684;23.260;2023-04-15T14:43:51;1.03;;;0.80;;
12792;SDS011;6460;42.684;23.260;2023-04-15T14:46:18;2.33;;;1.10;;
12792;SDS011;6460;42.684;23.260;2023-04-15T14:48:47;1.67;;;1.10;;
12792;SDS011;6460;42.684;23.260;2023-04-15T14:51:14;1.73;;;0.93;;
12792;SDS011;6460;42.684;23.260;2023-04-15T14:53:41;1.60;;;0.83;;
12792;SDS011;6460;42.684;23.260;2023-04-15T14:56:08;1.17;;;0.90;;
12792;SDS011;6460;42.684;23.260;2023-04-15T14:58:36;1.20;;;0.70;;
12792;SDS011;6460;42.684;23.260;2023-04-15T15:01:03;2.20;;;0.90;;
12792;SDS011;6460;42.684;23.260;2023-04-15T15:03:30;1.67;;;1.00;;
12792;SDS011;6460;42.684;23.260;2023-04-15T15:05:59;3.97;;;1.20;;